Time,TemperatureF,DewpointF,PressureIn,WindDirection,WindDirectionDegrees,WindSpeedMPH,WindSpeedGustMPH,Humidity,HourlyPrecipIn,Conditions,Clouds,dailyrainin,SoftwareType,DateUTC
2013-11-01 00:00:00,57.0,56.7,29.80,SSW,193,5.0,5.0,99,0.08,,,0.25,Wunderground v.1.15,2013-11-01 04:00:00,
2013-11-01 00:05:00,56.9,56.6,29.80,West,271,3.0,8.0,99,0.08,,,0.00,Wunderground v.1.15,2013-11-01 04:05:00,
2013-11-01 00:10:00,56.9,56.6,29.79,SSW,209,3.0,3.0,99,0.05,,,0.00,Wunderground v.1.15,2013-11-01 04:10:00,
2013-11-01 00:15:00,56.9,56.6,29.79,SSW,201,4.0,6.0,99,0.04,,,0.00,Wunderground v.1.15,2013-11-01 04:15:00,
2013-11-01 00:20:00,56.9,56.6,29.79,WSW,246,5.0,5.0,99,0.00,,,0.01,Wunderground v.1.15,2013-11-01 04:20:00,
2013-11-01 00:25:00,57.0,56.7,29.78,West,263,6.0,6.0,99,0.00,,,0.01,Wunderground v.1.15,2013-11-01 04:25:00,
2013-11-01 00:30:00,56.9,56.6,29.78,SW,223,5.0,5.0,99,0.07,,,0.02,Wunderground v.1.15,2013-11-01 04:30:00,
2013-11-01 00:35:00,56.9,56.6,29.77,West,281,4.0,7.0,99,0.06,,,0.02,Wunderground v.1.15,2013-11-01 04:35:00,
2013-11-01 00:40:00,56.9,56.6,29.77,SW,227,4.0,8.0,99,0.04,,,0.02,Wunderground v.1.15,2013-11-01 04:40:00,
2013-11-01 00:45:00,56.8,56.5,29.76,SSW,202,4.0,8.0,99,0.00,,,0.03,Wunderground v.1.15,2013-11-01 04:45:00,
2013-11-01 00:50:00,56.8,56.5,29.76,SSW,207,5.0,5.0,99,0.00,,,0.03,Wunderground v.1.15,2013-11-01 04:50:00,
2013-11-01 01:00:00,56.8,56.5,29.76,SW,234,4.0,8.0,99,0.00,,,0.03,Wunderground v.1.15,2013-11-01 05:00:00,
2013-11-01 01:10:00,56.9,56.6,29.76,SW,234,4.0,4.0,99,0.00,,,0.03,Wunderground v.1.15,2013-11-01 05:10:00,
2013-11-01 01:15:00,56.9,56.6,29.75,SW,227,4.0,8.0,99,0.00,,,0.04,Wunderground v.1.15,2013-11-01 05:15:00,
2013-11-01 01:20:00,56.9,56.6,29.75,West,277,4.0,8.0,99,0.00,,,0.04,Wunderground v.1.15,2013-11-01 05:20:00,
2013-11-01 01:25:00,57.0,57.0,29.75,SW,215,4.0,9.0,100,0.00,,,0.04,Wunderground v.1.15,2013-11-01 05:25:00,
2013-11-01 01:30:00,57.1,56.8,29.74,SW,223,5.0,5.0,99,0.00,,,0.04,Wunderground v.1.15,2013-11-01 05:30:00,
2013-11-01 01:35:00,57.2,56.9,29.74,WSW,238,4.0,8.0,99,0.00,,,0.04,Wunderground v.1.15,2013-11-01 05:35:00,
2013-11-01 01:40:00,57.1,56.8,29.74,WSW,250,4.0,4.0,99,0.00,,,0.04,Wunderground v.1.15,2013-11-01 05:40:00,
2013-11-01 01:45:00,57.1,57.1,29.73,SW,225,3.0,8.0,100,0.00,,,0.04,Wunderground v.1.15,2013-11-01 05:45:00,
2013-11-01 01:50:00,57.1,57.1,29.73,SSW,207,3.0,8.0,100,0.00,,,0.04,Wunderground v.1.15,2013-11-01 05:50:00,
2013-11-01 01:55:00,57.2,57.2,29.73,SSW,206,3.0,8.0,100,0.00,,,0.04,Wunderground v.1.15,2013-11-01 05:55:00,
2013-11-01 02:00:00,57.2,57.2,29.73,SW,227,3.0,8.0,100,0.00,,,0.04,Wunderground v.1.15,2013-11-01 06:00:00,
2013-11-01 02:05:00,57.3,57.3,29.73,West,279,4.0,8.0,100,0.00,,,0.05,Wunderground v.1.15,2013-11-01 06:05:00,
2013-11-01 02:10:00,57.5,57.5,29.73,SSW,205,4.0,4.0,100,0.00,,,0.05,Wunderground v.1.15,2013-11-01 06:10:00,
2013-11-01 02:15:00,57.7,57.7,29.73,SW,223,4.0,8.0,100,0.00,,,0.05,Wunderground v.1.15,2013-11-01 06:15:00,
2013-11-01 02:25:00,58.0,58.0,29.72,SW,234,4.0,8.0,100,0.00,,,0.05,Wunderground v.1.15,2013-11-01 06:25:00,
2013-11-01 02:30:00,58.0,58.0,29.71,West,278,4.0,8.0,100,0.00,,,0.05,Wunderground v.1.15,2013-11-01 06:30:00,
2013-11-01 02:35:00,58.0,58.0,29.71,West,271,3.0,8.0,100,0.00,,,0.05,Wunderground v.1.15,2013-11-01 06:35:00,
2013-11-01 02:40:00,58.0,58.0,29.70,SW,225,3.0,3.0,100,0.00,,,0.05,Wunderground v.1.15,2013-11-01 06:40:00,
2013-11-01 02:50:00,58.1,58.1,29.69,West,263,4.0,8.0,100,0.00,,,0.05,Wunderground v.1.15,2013-11-01 06:50:00,
2013-11-01 02:55:00,58.2,58.2,29.69,SW,217,5.0,8.0,100,0.00,,,0.05,Wunderground v.1.15,2013-11-01 06:55:00,
2013-11-01 03:00:00,58.2,58.2,29.69,SSW,200,4.0,8.0,100,0.00,,,0.05,Wunderground v.1.15,2013-11-01 07:00:00,
2013-11-01 03:05:00,58.3,58.3,29.68,SW,217,4.0,8.0,100,0.00,,,0.05,Wunderground v.1.15,2013-11-01 07:05:00,
2013-11-01 03:10:00,58.4,58.4,29.68,SW,214,5.0,8.0,100,0.00,,,0.05,Wunderground v.1.15,2013-11-01 07:10:00,
2013-11-01 03:15:00,58.6,58.6,29.68,SSW,211,6.0,8.0,100,0.00,,,0.05,Wunderground v.1.15,2013-11-01 07:15:00,
2013-11-01 03:20:00,58.7,58.7,29.67,SSW,207,6.0,8.0,100,0.00,,,0.05,Wunderground v.1.15,2013-11-01 07:20:00,
2013-11-01 03:30:00,58.9,58.9,29.67,SSW,212,6.0,8.0,100,0.00,,,0.05,Wunderground v.1.15,2013-11-01 07:30:00,
2013-11-01 03:35:00,59.2,59.2,29.66,SW,220,6.0,8.0,100,0.00,,,0.05,Wunderground v.1.15,2013-11-01 07:35:00,
2013-11-01 03:40:00,59.4,59.4,29.66,West,263,6.0,6.0,100,0.00,,,0.05,Wunderground v.1.15,2013-11-01 07:40:00,
2013-11-01 03:45:00,59.5,59.5,29.66,West,279,5.0,8.0,100,0.00,,,0.05,Wunderground v.1.15,2013-11-01 07:45:00,
2013-11-01 03:50:00,59.6,59.3,29.65,SW,219,4.0,9.0,99,0.00,,,0.05,Wunderground v.1.15,2013-11-01 07:50:00,
2013-11-01 03:55:00,59.7,59.4,29.65,WSW,252,5.0,9.0,99,0.00,,,0.05,Wunderground v.1.15,2013-11-01 07:55:00,
2013-11-01 04:00:00,59.8,59.5,29.64,SSW,209,5.0,8.0,99,0.00,,,0.05,Wunderground v.1.15,2013-11-01 08:00:00,
2013-11-01 04:05:00,59.9,59.6,29.64,South,180,6.0,8.0,99,0.00,,,0.05,Wunderground v.1.15,2013-11-01 08:05:00,
2013-11-01 04:15:00,60.1,59.8,29.63,SSW,202,6.0,7.0,99,0.00,,,0.05,Wunderground v.1.15,2013-11-01 08:15:00,
2013-11-01 04:20:00,60.2,59.9,29.63,WNW,282,6.0,6.0,99,0.00,,,0.05,Wunderground v.1.15,2013-11-01 08:20:00,
2013-11-01 04:30:00,60.3,60.0,29.63,South,182,5.0,5.0,99,0.00,,,0.05,Wunderground v.1.15,2013-11-01 08:30:00,
2013-11-01 04:35:00,60.4,60.1,29.62,WSW,254,5.0,8.0,99,0.00,,,0.05,Wunderground v.1.15,2013-11-01 08:35:00,
2013-11-01 04:40:00,60.5,60.2,29.62,West,259,6.0,8.0,99,0.00,,,0.06,Wunderground v.1.15,2013-11-01 08:40:00,
2013-11-01 04:45:00,60.7,60.4,29.61,SW,217,7.0,11.0,99,0.00,,,0.06,Wunderground v.1.15,2013-11-01 08:45:00,
2013-11-01 04:50:00,60.6,60.0,29.61,WNW,282,7.0,7.0,98,0.00,,,0.06,Wunderground v.1.15,2013-11-01 08:50:00,
2013-11-01 04:55:00,60.7,60.4,29.61,West,262,6.0,10.0,99,0.00,,,0.06,Wunderground v.1.15,2013-11-01 08:55:00,
2013-11-01 05:00:00,60.8,60.5,29.61,WSW,238,7.0,7.0,99,0.00,,,0.06,Wunderground v.1.15,2013-11-01 09:00:00,
2013-11-01 05:10:00,61.0,60.4,29.60,SSW,203,7.0,7.0,98,0.00,,,0.06,Wunderground v.1.15,2013-11-01 09:10:00,
2013-11-01 05:15:00,61.1,60.5,29.60,SSW,207,7.0,8.0,98,0.00,,,0.06,Wunderground v.1.15,2013-11-01 09:15:00,
2013-11-01 05:20:00,61.2,60.6,29.60,West,259,5.0,8.0,98,0.00,,,0.06,Wunderground v.1.15,2013-11-01 09:20:00,
2013-11-01 05:25:00,61.4,60.8,29.59,West,280,6.0,8.0,98,0.00,,,0.06,Wunderground v.1.15,2013-11-01 09:25:00,
2013-11-01 05:30:00,61.6,61.0,29.59,SSW,192,6.0,10.0,98,0.00,,,0.06,Wunderground v.1.15,2013-11-01 09:30:00,
2013-11-01 05:35:00,61.7,60.8,29.59,SW,232,6.0,10.0,97,0.00,,,0.06,Wunderground v.1.15,2013-11-01 09:35:00,
2013-11-01 05:40:00,62.0,61.1,29.59,WSW,248,7.0,7.0,97,0.00,,,0.06,Wunderground v.1.15,2013-11-01 09:40:00,
2013-11-01 05:45:00,62.1,60.9,29.59,SW,215,7.0,8.0,96,0.00,,,0.06,Wunderground v.1.15,2013-11-01 09:45:00,
2013-11-01 05:50:00,62.2,61.0,29.58,WSW,257,7.0,8.0,96,0.00,,,0.06,Wunderground v.1.15,2013-11-01 09:50:00,
2013-11-01 05:55:00,62.4,60.9,29.59,WNW,300,6.0,8.0,95,0.00,,,0.06,Wunderground v.1.15,2013-11-01 09:55:00,
2013-11-01 06:05:00,62.5,61.0,29.57,SW,226,6.0,8.0,95,0.00,,,0.06,Wunderground v.1.15,2013-11-01 10:05:00,
2013-11-01 06:10:00,62.6,61.1,29.57,West,265,6.0,6.0,95,0.00,,,0.06,Wunderground v.1.15,2013-11-01 10:10:00,
2013-11-01 06:15:00,62.8,61.0,29.57,WSW,248,8.0,8.0,94,0.00,,,0.06,Wunderground v.1.15,2013-11-01 10:15:00,
2013-11-01 06:20:00,62.8,61.0,29.57,SW,234,6.0,6.0,94,0.00,,,0.06,Wunderground v.1.15,2013-11-01 10:20:00,
2013-11-01 06:25:00,62.9,61.1,29.57,West,272,5.0,8.0,94,0.00,,,0.06,Wunderground v.1.15,2013-11-01 10:25:00,
2013-11-01 06:30:00,63.0,61.2,29.56,West,278,7.0,7.0,94,0.00,,,0.06,Wunderground v.1.15,2013-11-01 10:30:00,
2013-11-01 06:35:00,63.1,61.0,29.56,SSW,204,6.0,9.0,93,0.00,,,0.06,Wunderground v.1.15,2013-11-01 10:35:00,
2013-11-01 06:45:00,63.2,61.1,29.57,SSW,198,6.0,8.0,93,0.00,,,0.06,Wunderground v.1.15,2013-11-01 10:45:00,
2013-11-01 06:55:00,63.4,61.3,29.56,West,272,7.0,8.0,93,0.00,,,0.06,Wunderground v.1.15,2013-11-01 10:55:00,
2013-11-01 07:00:00,63.4,61.3,29.56,West,265,6.0,8.0,93,0.00,,,0.06,Wunderground v.1.15,2013-11-01 11:00:00,
2013-11-01 07:05:00,63.3,61.2,29.56,WSW,257,6.0,8.0,93,0.00,,,0.06,Wunderground v.1.15,2013-11-01 11:05:00,
2013-11-01 07:10:00,63.2,61.1,29.56,West,265,6.0,6.0,93,0.00,,,0.06,Wunderground v.1.15,2013-11-01 11:10:00,
2013-11-01 07:15:00,63.3,61.2,29.56,SW,228,6.0,7.0,93,0.00,,,0.06,Wunderground v.1.15,2013-11-01 11:15:00,
2013-11-01 07:20:00,63.1,61.3,29.55,SW,236,6.0,6.0,94,0.00,,,0.06,Wunderground v.1.15,2013-11-01 11:20:00,
2013-11-01 07:25:00,62.9,61.1,29.55,West,264,6.0,8.0,94,0.00,,,0.06,Wunderground v.1.15,2013-11-01 11:25:00,
2013-11-01 07:30:00,62.8,61.3,29.55,West,260,5.0,8.0,95,0.00,,,0.06,Wunderground v.1.15,2013-11-01 11:30:00,
2013-11-01 07:35:00,62.6,61.4,29.55,SSW,211,5.0,8.0,96,0.00,,,0.06,Wunderground v.1.15,2013-11-01 11:35:00,
2013-11-01 07:45:00,62.3,61.4,29.55,SSW,207,6.0,8.0,97,0.00,,,0.06,Wunderground v.1.15,2013-11-01 11:45:00,
2013-11-01 07:55:00,62.2,61.3,29.54,WSW,255,5.0,11.0,97,0.00,,,0.06,Wunderground v.1.15,2013-11-01 11:55:00,
2013-11-01 08:00:00,62.2,61.3,29.55,WSW,243,6.0,8.0,97,0.00,,,0.07,Wunderground v.1.15,2013-11-01 12:00:00,
2013-11-01 08:05:00,62.3,61.7,29.55,SW,229,6.0,10.0,98,0.00,,,0.07,Wunderground v.1.15,2013-11-01 12:05:00,
2013-11-01 08:10:00,62.3,61.4,29.55,SW,219,6.0,11.0,97,0.00,,,0.07,Wunderground v.1.15,2013-11-01 12:10:00,
2013-11-01 08:15:00,62.4,61.5,29.55,West,261,7.0,11.0,97,0.00,,,0.07,Wunderground v.1.15,2013-11-01 12:15:00,
2013-11-01 08:20:00,62.5,61.6,29.55,West,259,6.0,6.0,97,0.00,,,0.07,Wunderground v.1.15,2013-11-01 12:20:00,
2013-11-01 08:30:00,62.7,61.5,29.54,SW,227,7.0,8.0,96,0.00,,,0.07,Wunderground v.1.15,2013-11-01 12:30:00,
2013-11-01 08:35:00,62.8,61.6,29.54,SSW,196,5.0,8.0,96,0.00,,,0.07,Wunderground v.1.15,2013-11-01 12:35:00,
2013-11-01 08:40:00,62.9,61.7,29.54,SW,219,5.0,5.0,96,0.00,,,0.07,Wunderground v.1.15,2013-11-01 12:40:00,
2013-11-01 08:50:00,63.2,62.0,29.53,West,265,6.0,6.0,96,0.00,,,0.07,Wunderground v.1.15,2013-11-01 12:50:00,
2013-11-01 08:55:00,63.4,61.9,29.53,SSW,205,6.0,7.0,95,0.00,,,0.07,Wunderground v.1.15,2013-11-01 12:55:00,
2013-11-01 09:00:00,63.4,61.9,29.53,SW,225,6.0,6.0,95,0.00,,,0.07,Wunderground v.1.15,2013-11-01 13:00:00,
2013-11-01 09:05:00,63.5,62.0,29.53,SW,217,7.0,7.0,95,0.00,,,0.07,Wunderground v.1.15,2013-11-01 13:05:00,
2013-11-01 09:10:00,63.6,62.1,29.53,West,259,6.0,6.0,95,0.00,,,0.07,Wunderground v.1.15,2013-11-01 13:10:00,
2013-11-01 09:15:00,63.7,62.2,29.52,West,277,5.0,8.0,95,0.00,,,0.07,Wunderground v.1.15,2013-11-01 13:15:00,
2013-11-01 09:20:00,63.7,61.9,29.52,SSW,205,6.0,6.0,94,0.00,,,0.07,Wunderground v.1.15,2013-11-01 13:20:00,
2013-11-01 09:30:00,63.8,62.0,29.51,SSW,212,6.0,8.0,94,0.00,,,0.07,Wunderground v.1.15,2013-11-01 13:30:00,
2013-11-01 09:35:00,63.8,62.0,29.51,SSW,206,7.0,8.0,94,0.00,,,0.07,Wunderground v.1.15,2013-11-01 13:35:00,
2013-11-01 09:40:00,63.8,62.0,29.50,SSW,192,6.0,8.0,94,0.00,,,0.07,Wunderground v.1.15,2013-11-01 13:40:00,
2013-11-01 09:45:00,63.8,62.0,29.50,West,272,6.0,8.0,94,0.00,,,0.07,Wunderground v.1.15,2013-11-01 13:45:00,
2013-11-01 09:50:00,63.7,62.2,29.49,West,273,7.0,7.0,95,0.00,,,0.07,Wunderground v.1.15,2013-11-01 13:50:00,
2013-11-01 09:55:00,63.5,62.0,29.50,WSW,243,8.0,8.0,95,0.00,,,0.08,Wunderground v.1.15,2013-11-01 13:55:00,
2013-11-01 10:00:00,63.0,61.8,29.55,NNW,327,8.0,8.0,96,0.47,,,0.18,Wunderground v.1.15,2013-11-01 14:00:00,
2013-11-01 10:10:00,60.6,58.9,29.55,WSW,244,5.0,5.0,94,0.08,,,0.20,Wunderground v.1.15,2013-11-01 14:10:00,
2013-11-01 10:15:00,59.8,58.4,29.56,West,261,4.0,8.0,95,0.05,,,0.20,Wunderground v.1.15,2013-11-01 14:15:00,
2013-11-01 10:20:00,59.3,57.9,29.56,WNW,284,4.0,8.0,95,0.00,,,0.20,Wunderground v.1.15,2013-11-01 14:20:00,
2013-11-01 10:30:00,58.7,57.3,29.56,West,278,4.0,4.0,95,0.00,,,0.21,Wunderground v.1.15,2013-11-01 14:30:00,
2013-11-01 10:35:00,58.5,57.4,29.57,WSW,248,3.0,8.0,96,0.00,,,0.21,Wunderground v.1.15,2013-11-01 14:35:00,
2013-11-01 10:40:00,58.3,57.2,29.57,SSW,200,3.0,3.0,96,0.00,,,0.21,Wunderground v.1.15,2013-11-01 14:40:00,
2013-11-01 10:45:00,58.1,57.0,29.57,SW,229,2.0,8.0,96,0.04,,,0.22,Wunderground v.1.15,2013-11-01 14:45:00,
2013-11-01 10:50:00,57.9,56.8,29.58,NW,305,2.0,8.0,96,0.04,,,0.22,Wunderground v.1.15,2013-11-01 14:50:00,
2013-11-01 10:55:00,57.7,56.6,29.57,SW,223,3.0,8.0,96,0.04,,,0.22,Wunderground v.1.15,2013-11-01 14:55:00,
2013-11-01 11:00:00,57.6,56.5,29.56,NW,311,2.0,8.0,96,0.00,,,0.22,Wunderground v.1.15,2013-11-01 15:00:00,
2013-11-01 11:10:00,57.3,56.2,29.55,West,268,2.0,8.0,96,0.00,,,0.23,Wunderground v.1.15,2013-11-01 15:10:00,
2013-11-01 11:20:00,57.3,56.2,29.54,SSW,213,2.0,8.0,96,0.00,,,0.23,Wunderground v.1.15,2013-11-01 15:20:00,
2013-11-01 11:25:00,57.3,56.5,29.54,SSW,212,1.0,8.0,97,0.00,,,0.23,Wunderground v.1.15,2013-11-01 15:25:00,
2013-11-01 11:30:00,57.3,56.5,29.55,West,266,1.0,8.0,97,0.00,,,0.23,Wunderground v.1.15,2013-11-01 15:30:00,
2013-11-01 11:35:00,57.3,56.5,29.54,SSW,210,1.0,8.0,97,0.00,,,0.24,Wunderground v.1.15,2013-11-01 15:35:00,
2013-11-01 11:40:00,57.3,56.5,29.54,West,281,1.0,8.0,97,0.00,,,0.24,Wunderground v.1.15,2013-11-01 15:40:00,
2013-11-01 11:45:00,57.4,56.6,29.54,SSW,201,1.0,8.0,97,0.00,,,0.24,Wunderground v.1.15,2013-11-01 15:45:00,
2013-11-01 11:50:00,57.4,56.6,29.54,West,281,2.0,8.0,97,0.00,,,0.24,Wunderground v.1.15,2013-11-01 15:50:00,
2013-11-01 11:55:00,57.5,56.7,29.55,West,276,2.0,8.0,97,0.00,,,0.24,Wunderground v.1.15,2013-11-01 15:55:00,
2013-11-01 12:05:00,57.9,57.1,29.52,SSW,193,3.0,4.0,97,0.00,,,0.24,Wunderground v.1.15,2013-11-01 16:05:00,
2013-11-01 12:10:00,57.9,56.8,29.53,SW,236,2.0,8.0,96,0.00,,,0.24,Wunderground v.1.15,2013-11-01 16:10:00,
2013-11-01 12:15:00,58.0,57.2,29.54,WSW,252,2.0,8.0,97,0.00,,,0.24,Wunderground v.1.15,2013-11-01 16:15:00,
2013-11-01 12:25:00,58.5,56.8,29.52,West,268,3.0,3.0,94,0.00,,,0.24,Wunderground v.1.15,2013-11-01 16:25:00,
2013-11-01 12:30:00,58.8,56.8,29.52,WSW,243,3.0,3.0,93,0.00,,,0.24,Wunderground v.1.15,2013-11-01 16:30:00,
2013-11-01 12:35:00,59.1,56.5,29.51,West,262,2.0,8.0,91,0.00,,,0.24,Wunderground v.1.15,2013-11-01 16:35:00,
2013-11-01 12:40:00,59.3,56.7,29.52,SSW,203,2.0,8.0,91,0.00,,,0.24,Wunderground v.1.15,2013-11-01 16:40:00,
2013-11-01 12:45:00,59.5,56.6,29.53,WNW,289,2.0,8.0,90,0.00,,,0.24,Wunderground v.1.15,2013-11-01 16:45:00,
2013-11-01 12:50:00,59.9,56.3,29.53,WSW,255,3.0,8.0,88,0.00,,,0.24,Wunderground v.1.15,2013-11-01 16:50:00,
2013-11-01 12:55:00,60.2,56.3,29.53,West,281,3.0,8.0,87,0.00,,,0.24,Wunderground v.1.15,2013-11-01 16:55:00,
2013-11-01 13:05:00,60.4,55.9,29.53,SSW,196,4.0,8.0,85,0.00,,,0.24,Wunderground v.1.15,2013-11-01 17:05:00,
2013-11-01 13:15:00,60.5,55.6,29.52,WSW,237,3.0,8.0,84,0.00,,,0.24,Wunderground v.1.15,2013-11-01 17:15:00,
2013-11-01 13:20:00,60.5,55.6,29.52,SW,235,4.0,8.0,84,0.00,,,0.24,Wunderground v.1.15,2013-11-01 17:20:00,
2013-11-01 13:25:00,60.6,55.1,29.51,West,276,5.0,5.0,82,0.00,,,0.24,Wunderground v.1.15,2013-11-01 17:25:00,
2013-11-01 13:30:00,60.6,55.4,29.51,WSW,243,5.0,8.0,83,0.00,,,0.24,Wunderground v.1.15,2013-11-01 17:30:00,
2013-11-01 13:40:00,60.8,55.9,29.51,West,271,4.0,8.0,84,0.00,,,0.24,Wunderground v.1.15,2013-11-01 17:40:00,
2013-11-01 13:45:00,61.1,55.6,29.50,SSW,196,3.0,3.0,82,0.00,,,0.24,Wunderground v.1.15,2013-11-01 17:45:00,
2013-11-01 13:50:00,61.4,56.2,29.50,WSW,250,4.0,7.0,83,0.00,,,0.24,Wunderground v.1.15,2013-11-01 17:50:00,
2013-11-01 13:55:00,62.1,56.5,29.51,West,271,4.0,8.0,82,0.00,,,0.24,Wunderground v.1.15,2013-11-01 17:55:00,
2013-11-01 14:00:00,62.9,56.6,29.51,West,274,4.0,4.0,80,0.00,,,0.24,Wunderground v.1.15,2013-11-01 18:00:00,
2013-11-01 14:05:00,63.9,56.2,29.51,SSW,194,4.0,9.0,76,0.00,,,0.24,Wunderground v.1.15,2013-11-01 18:05:00,
2013-11-01 14:10:00,64.1,57.1,29.51,WNW,293,4.0,4.0,78,0.00,,,0.24,Wunderground v.1.15,2013-11-01 18:10:00,
2013-11-01 14:20:00,64.1,56.0,29.51,South,190,5.0,8.0,75,0.00,,,0.24,Wunderground v.1.15,2013-11-01 18:20:00,
2013-11-01 14:25:00,64.0,56.6,29.50,SSW,206,5.0,8.0,77,0.00,,,0.24,Wunderground v.1.15,2013-11-01 18:25:00,
2013-11-01 14:30:00,63.8,55.4,29.51,WNW,287,5.0,5.0,74,0.00,,,0.24,Wunderground v.1.15,2013-11-01 18:30:00,
2013-11-01 14:35:00,63.8,56.1,29.51,West,280,4.0,8.0,76,0.00,,,0.24,Wunderground v.1.15,2013-11-01 18:35:00,
2013-11-01 14:40:00,63.5,55.4,29.50,SW,216,3.0,8.0,75,0.00,,,0.24,Wunderground v.1.15,2013-11-01 18:40:00,
2013-11-01 14:45:00,63.9,55.8,29.50,SW,229,4.0,8.0,75,0.00,,,0.24,Wunderground v.1.15,2013-11-01 18:45:00,
2013-11-01 14:50:00,64.6,56.1,29.50,WSW,258,4.0,8.0,74,0.00,,,0.24,Wunderground v.1.15,2013-11-01 18:50:00,
2013-11-01 15:00:00,64.8,55.6,29.49,WNW,292,4.0,8.0,72,0.00,,,0.24,Wunderground v.1.15,2013-11-01 19:00:00,
2013-11-01 15:05:00,64.6,55.7,29.50,WSW,256,4.0,8.0,73,0.00,,,0.24,Wunderground v.1.15,2013-11-01 19:05:00,
2013-11-01 15:10:00,65.0,55.4,29.50,NW,313,5.0,5.0,71,0.00,,,0.24,Wunderground v.1.15,2013-11-01 19:10:00,
2013-11-01 15:15:00,64.8,54.8,29.50,WSW,241,5.0,10.0,70,0.00,,,0.24,Wunderground v.1.15,2013-11-01 19:15:00,
2013-11-01 15:20:00,64.3,54.3,29.50,WNW,290,5.0,8.0,70,0.00,,,0.24,Wunderground v.1.15,2013-11-01 19:20:00,
2013-11-01 15:25:00,64.4,55.2,29.50,West,275,5.0,8.0,72,0.00,,,0.24,Wunderground v.1.15,2013-11-01 19:25:00,
2013-11-01 15:30:00,65.0,55.4,29.50,West,269,4.0,4.0,71,0.00,,,0.24,Wunderground v.1.15,2013-11-01 19:30:00,
2013-11-01 15:35:00,65.0,55.0,29.51,SW,222,5.0,5.0,70,0.00,,,0.24,Wunderground v.1.15,2013-11-01 19:35:00,
2013-11-01 15:40:00,64.7,54.3,29.51,WSW,249,5.0,5.0,69,0.00,,,0.24,Wunderground v.1.15,2013-11-01 19:40:00,
2013-11-01 15:50:00,64.5,54.1,29.51,WNW,303,6.0,6.0,69,0.00,,,0.24,Wunderground v.1.15,2013-11-01 19:50:00,
2013-11-01 15:55:00,64.8,54.4,29.52,West,266,5.0,8.0,69,0.00,,,0.24,Wunderground v.1.15,2013-11-01 19:55:00,
2013-11-01 16:00:00,65.1,54.3,29.51,WNW,284,4.0,4.0,68,0.00,,,0.24,Wunderground v.1.15,2013-11-01 20:00:00,
2013-11-01 16:05:00,65.3,54.5,29.52,SSW,209,4.0,8.0,68,0.00,,,0.24,Wunderground v.1.15,2013-11-01 20:05:00,
2013-11-01 16:10:00,65.3,54.5,29.52,West,263,3.0,3.0,68,0.00,,,0.24,Wunderground v.1.15,2013-11-01 20:10:00,
2013-11-01 16:15:00,65.0,53.8,29.52,West,267,4.0,4.0,67,0.00,,,0.24,Wunderground v.1.15,2013-11-01 20:15:00,
2013-11-01 16:20:00,64.8,54.0,29.51,WSW,238,4.0,8.0,68,0.00,,,0.24,Wunderground v.1.15,2013-11-01 20:20:00,
2013-11-01 16:30:00,64.5,53.3,29.52,SSW,201,3.0,8.0,67,0.00,,,0.24,Wunderground v.1.15,2013-11-01 20:30:00,
2013-11-01 16:40:00,64.2,53.0,29.52,SSW,202,3.0,3.0,67,0.00,,,0.24,Wunderground v.1.15,2013-11-01 20:40:00,
2013-11-01 16:45:00,64.2,53.8,29.52,WSW,246,3.0,8.0,69,0.00,,,0.24,Wunderground v.1.15,2013-11-01 20:45:00,
2013-11-01 16:50:00,64.1,52.9,29.52,SSW,204,2.0,8.0,67,0.00,,,0.24,Wunderground v.1.15,2013-11-01 20:50:00,
2013-11-01 16:55:00,64.1,53.7,29.52,West,271,2.0,8.0,69,0.00,,,0.24,Wunderground v.1.15,2013-11-01 20:55:00,
2013-11-01 17:00:00,64.0,53.6,29.53,SW,227,1.0,8.0,69,0.00,,,0.24,Wunderground v.1.15,2013-11-01 21:00:00,
2013-11-01 17:10:00,64.0,53.2,29.52,WNW,289,2.0,2.0,68,0.00,,,0.24,Wunderground v.1.15,2013-11-01 21:10:00,
2013-11-01 17:15:00,63.9,53.1,29.52,West,270,2.0,8.0,68,0.00,,,0.24,Wunderground v.1.15,2013-11-01 21:15:00,
2013-11-01 17:25:00,63.3,53.3,29.52,West,267,1.0,8.0,70,0.00,,,0.24,Wunderground v.1.15,2013-11-01 21:25:00,
2013-11-01 17:30:00,63.0,52.7,29.53,SW,235,1.0,1.0,69,0.00,,,0.24,Wunderground v.1.15,2013-11-01 21:30:00,
2013-11-01 17:35:00,62.8,52.9,29.53,WNW,289,1.0,8.0,70,0.00,,,0.24,Wunderground v.1.15,2013-11-01 21:35:00,
2013-11-01 17:50:00,61.7,52.6,29.54,WNW,288,0.0,8.0,72,0.00,,,0.24,Wunderground v.1.15,2013-11-01 21:50:00,
2013-11-01 17:55:00,61.4,52.7,29.54,WNW,288,1.0,8.0,73,0.00,,,0.24,Wunderground v.1.15,2013-11-01 21:55:00,
2013-11-01 18:00:00,61.1,52.7,29.54,WNW,288,0.0,8.0,74,0.00,,,0.24,Wunderground v.1.15,2013-11-01 22:00:00,
2013-11-01 18:05:00,60.7,52.0,29.55,WNW,288,0.0,8.0,73,0.00,,,0.24,Wunderground v.1.15,2013-11-01 22:05:00,
2013-11-01 18:10:00,60.5,52.2,29.55,WNW,284,0.0,8.0,74,0.00,,,0.24,Wunderground v.1.15,2013-11-01 22:10:00,
2013-11-01 18:15:00,60.4,52.1,29.55,WNW,284,0.0,8.0,74,0.00,,,0.24,Wunderground v.1.15,2013-11-01 22:15:00,
2013-11-01 18:20:00,60.3,52.0,29.56,WNW,284,0.0,8.0,74,0.00,,,0.24,Wunderground v.1.15,2013-11-01 22:20:00,
2013-11-01 18:30:00,59.9,52.0,29.56,WNW,284,0.0,8.0,75,0.00,,,0.24,Wunderground v.1.15,2013-11-01 22:30:00,
2013-11-01 18:35:00,59.7,51.8,29.56,WNW,284,0.0,8.0,75,0.00,,,0.24,Wunderground v.1.15,2013-11-01 22:35:00,
2013-11-01 18:40:00,59.5,51.6,29.57,WNW,284,0.0,8.0,75,0.00,,,0.24,Wunderground v.1.15,2013-11-01 22:40:00,
2013-11-01 18:45:00,59.3,51.7,29.57,WNW,284,0.0,8.0,76,0.00,,,0.24,Wunderground v.1.15,2013-11-01 22:45:00,
2013-11-01 18:50:00,59.0,51.4,29.58,WNW,284,0.0,8.0,76,0.00,,,0.24,Wunderground v.1.15,2013-11-01 22:50:00,
2013-11-01 18:55:00,58.7,51.5,29.58,WNW,284,0.0,8.0,77,0.00,,,0.24,Wunderground v.1.15,2013-11-01 22:55:00,
2013-11-01 19:00:00,58.3,51.8,29.58,WNW,284,0.0,8.0,79,0.00,,,0.24,Wunderground v.1.15,2013-11-01 23:00:00,
2013-11-01 19:10:00,57.4,51.3,29.59,WNW,284,0.0,8.0,80,0.00,,,0.24,Wunderground v.1.15,2013-11-01 23:10:00,
2013-11-01 19:15:00,57.3,51.2,29.59,WNW,284,0.0,8.0,80,0.00,,,0.24,Wunderground v.1.15,2013-11-01 23:15:00,
2013-11-01 19:20:00,57.4,51.3,29.60,WNW,284,0.0,8.0,80,0.00,,,0.24,Wunderground v.1.15,2013-11-01 23:20:00,
2013-11-01 19:25:00,57.5,51.4,29.60,WNW,284,0.0,8.0,80,0.00,,,0.24,Wunderground v.1.15,2013-11-01 23:25:00,
2013-11-01 19:35:00,57.5,51.0,29.60,WNW,284,0.0,8.0,79,0.00,,,0.24,Wunderground v.1.15,2013-11-01 23:35:00,
2013-11-01 19:45:00,57.4,50.6,29.60,WNW,284,0.0,8.0,78,0.00,,,0.24,Wunderground v.1.15,2013-11-01 23:45:00,
2013-11-01 19:50:00,57.5,50.3,29.61,WNW,284,0.0,8.0,77,0.00,,,0.24,Wunderground v.1.15,2013-11-01 23:50:00,
2013-11-01 19:55:00,57.6,50.4,29.61,WNW,284,0.0,8.0,77,0.00,,,0.24,Wunderground v.1.15,2013-11-01 23:55:00,
2013-11-01 20:00:00,57.6,50.1,29.61,West,278,0.0,8.0,76,0.00,,,0.24,Wunderground v.1.15,2013-11-02 00:00:00,
2013-11-01 20:05:00,57.5,50.0,29.61,West,278,0.0,8.0,76,0.00,,,0.24,Wunderground v.1.15,2013-11-02 00:05:00,
2013-11-01 20:10:00,57.6,50.1,29.61,NW,320,0.0,8.0,76,0.00,,,0.24,Wunderground v.1.15,2013-11-02 00:10:00,
2013-11-01 20:15:00,57.6,50.1,29.61,NW,320,0.0,8.0,76,0.00,,,0.24,Wunderground v.1.15,2013-11-02 00:15:00,
2013-11-01 20:20:00,57.5,50.0,29.61,NW,320,0.0,8.0,76,0.00,,,0.24,Wunderground v.1.15,2013-11-02 00:20:00,
2013-11-01 20:25:00,57.5,50.0,29.62,WNW,303,0.0,8.0,76,0.00,,,0.24,Wunderground v.1.15,2013-11-02 00:25:00,
2013-11-01 20:35:00,57.4,49.9,29.62,West,269,0.0,8.0,76,0.00,,,0.24,Wunderground v.1.15,2013-11-02 00:35:00,
2013-11-01 20:40:00,57.3,49.8,29.62,West,269,0.0,8.0,76,0.00,,,0.24,Wunderground v.1.15,2013-11-02 00:40:00,
2013-11-01 20:45:00,57.2,49.7,29.63,West,269,0.0,8.0,76,0.00,,,0.24,Wunderground v.1.15,2013-11-02 00:45:00,
2013-11-01 20:50:00,57.1,50.0,29.63,West,269,0.0,8.0,77,0.00,,,0.24,Wunderground v.1.15,2013-11-02 00:50:00,
2013-11-01 20:55:00,57.0,50.2,29.63,West,269,0.0,8.0,78,0.00,,,0.24,Wunderground v.1.15,2013-11-02 00:55:00,
2013-11-01 21:00:00,57.1,50.3,29.63,West,269,0.0,8.0,78,0.00,,,0.24,Wunderground v.1.15,2013-11-02 01:00:00,
2013-11-01 21:05:00,56.9,50.1,29.63,West,269,0.0,8.0,78,0.00,,,0.24,Wunderground v.1.15,2013-11-02 01:05:00,
2013-11-01 21:15:00,56.6,50.2,29.63,West,269,0.0,8.0,79,0.00,,,0.24,Wunderground v.1.15,2013-11-02 01:15:00,
2013-11-01 21:25:00,56.6,49.1,29.63,West,269,0.0,8.0,76,0.00,,,0.24,Wunderground v.1.15,2013-11-02 01:25:00,
2013-11-01 21:30:00,56.9,49.1,29.64,WNW,301,0.0,8.0,75,0.00,,,0.24,Wunderground v.1.15,2013-11-02 01:30:00,
2013-11-01 21:35:00,57.0,48.8,29.64,WNW,301,0.0,8.0,74,0.00,,,0.24,Wunderground v.1.15,2013-11-02 01:35:00,
2013-11-01 21:40:00,57.1,48.5,29.64,WNW,301,0.0,8.0,73,0.00,,,0.24,Wunderground v.1.15,2013-11-02 01:40:00,
2013-11-01 21:50:00,57.0,48.1,29.64,WNW,299,0.0,8.0,72,0.00,,,0.24,Wunderground v.1.15,2013-11-02 01:50:00,
2013-11-01 21:55:00,56.9,48.0,29.64,WNW,299,0.0,8.0,72,0.00,,,0.24,Wunderground v.1.15,2013-11-02 01:55:00,
2013-11-01 22:00:00,56.9,48.3,29.65,WNW,299,0.0,8.0,73,0.00,,,0.24,Wunderground v.1.15,2013-11-02 02:00:00,
2013-11-01 22:05:00,56.7,47.8,29.65,WNW,299,0.0,8.0,72,0.00,,,0.24,Wunderground v.1.15,2013-11-02 02:05:00,
2013-11-01 22:15:00,56.6,48.0,29.65,WNW,299,0.0,8.0,73,0.00,,,0.24,Wunderground v.1.15,2013-11-02 02:15:00,
2013-11-01 22:25:00,56.3,47.8,29.66,WNW,299,0.0,8.0,73,0.00,,,0.24,Wunderground v.1.15,2013-11-02 02:25:00,
2013-11-01 22:30:00,56.1,47.6,29.65,WNW,299,0.0,8.0,73,0.00,,,0.24,Wunderground v.1.15,2013-11-02 02:30:00,
2013-11-01 22:35:00,56.1,47.6,29.66,WNW,302,0.0,8.0,73,0.00,,,0.24,Wunderground v.1.15,2013-11-02 02:35:00,
2013-11-01 22:40:00,56.0,47.8,29.66,WNW,302,0.0,8.0,74,0.00,,,0.24,Wunderground v.1.15,2013-11-02 02:40:00,
2013-11-01 22:45:00,55.7,47.2,29.66,NNW,329,0.0,8.0,73,0.00,,,0.24,Wunderground v.1.15,2013-11-02 02:45:00,
2013-11-01 22:50:00,55.5,46.6,29.66,NNW,329,0.0,8.0,72,0.00,,,0.24,Wunderground v.1.15,2013-11-02 02:50:00,
2013-11-01 22:55:00,55.6,46.0,29.66,NNW,329,0.0,8.0,70,0.00,,,0.24,Wunderground v.1.15,2013-11-02 02:55:00,
2013-11-01 23:00:00,55.5,45.9,29.66,NNW,329,0.0,8.0,70,0.00,,,0.24,Wunderground v.1.15,2013-11-02 03:00:00,
2013-11-01 23:10:00,55.2,45.6,29.66,NNW,329,0.0,8.0,70,0.00,,,0.24,Wunderground v.1.15,2013-11-02 03:10:00,
2013-11-01 23:15:00,55.2,45.6,29.68,NNE,22,1.0,8.0,70,0.00,,,0.24,Wunderground v.1.15,2013-11-02 03:15:00,
2013-11-01 23:20:00,54.9,45.3,29.68,NE,39,2.0,8.0,70,0.00,,,0.24,Wunderground v.1.15,2013-11-02 03:20:00,
2013-11-01 23:25:00,54.6,45.4,29.67,NE,53,4.0,8.0,71,0.00,,,0.24,Wunderground v.1.15,2013-11-02 03:25:00,
2013-11-01 23:30:00,54.1,45.3,29.68,NNE,28,4.0,4.0,72,0.00,,,0.24,Wunderground v.1.15,2013-11-02 03:30:00,
2013-11-01 23:35:00,53.4,45.3,29.67,NNE,23,3.0,8.0,74,0.00,,,0.24,Wunderground v.1.15,2013-11-02 03:35:00,
2013-11-01 23:40:00,52.8,45.1,29.67,NNE,15,2.0,2.0,75,0.00,,,0.24,Wunderground v.1.15,2013-11-02 03:40:00,
2013-11-01 23:50:00,52.0,45.0,29.67,ENE,60,1.0,8.0,77,0.00,,,0.24,Wunderground v.1.15,2013-11-02 03:50:00,
2013-11-01 23:55:00,51.6,44.6,29.67,NE,49,1.0,8.0,77,0.00,,,0.24,Wunderground v.1.15,2013-11-02 03:55:00,